Auburn, Georgia
Current Conditions -  °F | °C
As of 7:45 AM on Monday 20 Oct 2014 (Local Time) from KLZU Reporting Station
Clear Clear  
Wind Chill: 43°   Ceiling: Unl
Heat Index: 43°   Visibility: 10mi
Dew Point: 37°   Wind: 0mph
Humidity: 81%   Direction: NA
Pressure: 30.11"   Gusts: NA
Location:  34.01°N, 83.83°W
Report Text: KLZU 201145Z 00000KT 10SM CLR 06/03 A3011 RMK ATIS O RWY 25 JW
Loading
Personal Weather Stations






























Interactive Weather Map New forecast layout! Learn more

10-Day Weather Forecast

Advertisements
Track Severe Weather on mobile